Time;durP1;ratioP1;P1;durP2;ratioP2;P2;SDS_P1;SDS_P2;PMS_P1;PMS_P2;Temp;Humidity;BMP_temperature;BMP_pressure;BME280_temperature;BME280_humidity;BME280_pressure;Samples;Min_cycle;Max_cycle;Signal;HPM_P1;HPM_P2
2021/11/06 00:01:06;;;;;;;9.18;4.70;;;;;;;;;;5033429;28;20038;-82
2021/11/06 00:04:28;;;;;;;7.30;4.28;;;;;;;;;;5035187;28;20041;-82
2021/11/06 00:06:56;;;;;;;6.55;3.55;;;;;;;;;;5025205;28;20060;-82
2021/11/06 00:09:22;;;;;;;11.18;5.85;;;;;;;;;;5233227;23;20020;-82
2021/11/06 00:11:49;;;;;;;10.15;4.72;;;;;;;;;;5029583;28;20049;-82
2021/11/06 00:14:15;;;;;;;12.35;6.20;;;;;;;;;;5032182;28;20521;-82
2021/11/06 00:16:42;;;;;;;10.80;5.47;;;;;;;;;;5034299;28;20049;-82
2021/11/06 00:19:08;;;;;;;9.40;4.18;;;;;;;;;;5034419;28;20045;-82
2021/11/06 00:21:35;;;;;;;10.15;4.95;;;;;;;;;;5033622;28;20037;-82
2021/11/06 00:24:03;;;;;;;8.35;4.45;;;;;;;;;;5033348;28;20062;-82
2021/11/06 00:26:29;;;;;;;8.52;4.90;;;;;;;;;;5035874;28;20045;-82
2021/11/06 00:28:56;;;;;;;9.30;3.72;;;;;;;;;;5032850;28;20042;-82
2021/11/06 00:31:22;;;;;;;7.95;3.17;;;;;;;;;;5029570;28;20076;-82
2021/11/06 00:33:49;;;;;;;7.57;3.55;;;;;;;;;;5033096;28;20144;-82
2021/11/06 00:36:15;;;;;;;8.10;3.67;;;;;;;;;;5030253;28;20041;-82
2021/11/06 00:38:42;;;;;;;4.90;2.92;;;;;;;;;;5028336;28;20121;-82
2021/11/06 00:41:10;;;;;;;5.57;3.50;;;;;;;;;;5034491;28;20042;-82
2021/11/06 00:43:36;;;;;;;5.18;2.92;;;;;;;;;;5033915;28;20045;-82
2021/11/06 00:46:02;;;;;;;5.88;3.47;;;;;;;;;;5025292;28;20054;-82
2021/11/06 00:48:29;;;;;;;5.82;3.63;;;;;;;;;;5031351;28;20045;-82
2021/11/06 00:50:55;;;;;;;6.38;3.55;;;;;;;;;;5029703;28;20056;-82
2021/11/06 00:53:22;;;;;;;6.78;3.90;;;;;;;;;;5038111;28;20044;-82
2021/11/06 00:55:49;;;;;;;7.45;3.90;;;;;;;;;;5033063;28;20049;-82
2021/11/06 00:58:16;;;;;;;6.00;3.58;;;;;;;;;;5034614;28;20037;-82
2021/11/06 01:00:43;;;;;;;6.45;3.90;;;;;;;;;;5032382;28;20052;-82
2021/11/06 01:03:09;;;;;;;12.00;3.78;;;;;;;;;;5029162;28;20046;-82
2021/11/06 01:05:36;;;;;;;10.13;4.60;;;;;;;;;;5035975;28;20042;-82
2021/11/06 01:08:02;;;;;;;7.25;4.35;;;;;;;;;;5033276;28;20052;-82
2021/11/06 01:10:29;;;;;;;10.13;4.60;;;;;;;;;;5032548;28;20046;-82
2021/11/06 01:12:56;;;;;;;11.93;5.95;;;;;;;;;;5034856;28;20037;-82
2021/11/06 01:15:24;;;;;;;6.97;4.47;;;;;;;;;;5035565;28;20045;-82
2021/11/06 01:17:50;;;;;;;7.60;3.83;;;;;;;;;;5033638;28;20057;-82
2021/11/06 01:20:17;;;;;;;9.85;4.68;;;;;;;;;;5029476;28;20049;-81
2021/11/06 01:22:44;;;;;;;9.27;5.00;;;;;;;;;;5034403;28;20124;-82
2021/11/06 01:25:11;;;;;;;7.20;3.92;;;;;;;;;;5027398;28;20045;-82
2021/11/06 01:27:38;;;;;;;7.95;4.15;;;;;;;;;;5033091;28;20045;-82
2021/11/06 01:30:05;;;;;;;8.70;4.50;;;;;;;;;;5026688;28;20049;-82
2021/11/06 01:32:33;;;;;;;8.20;4.13;;;;;;;;;;5032989;28;20054;-82
2021/11/06 01:35:01;;;;;;;9.27;4.72;;;;;;;;;;5030895;28;20045;-82
2021/11/06 01:37:27;;;;;;;7.22;4.30;;;;;;;;;;5032800;28;20081;-82
2021/11/06 01:39:54;;;;;;;9.23;5.10;;;;;;;;;;5028058;28;20041;-82
2021/11/06 01:42:20;;;;;;;8.15;4.25;;;;;;;;;;5037294;28;20049;-82
2021/11/06 01:44:47;;;;;;;7.07;3.80;;;;;;;;;;5036840;28;20046;-82
2021/11/06 01:47:13;;;;;;;10.35;4.82;;;;;;;;;;5035739;28;20060;-82
2021/11/06 01:49:41;;;;;;;9.82;4.55;;;;;;;;;;5036273;28;20053;-81
2021/11/06 01:52:08;;;;;;;8.82;4.63;;;;;;;;;;5041953;28;20057;-82
2021/11/06 01:54:35;;;;;;;8.70;5.28;;;;;;;;;;5032204;28;20053;-82
2021/11/06 01:57:02;;;;;;;8.27;4.43;;;;;;;;;;5036999;28;20045;-82
2021/11/06 01:59:28;;;;;;;7.03;4.65;;;;;;;;;;5037930;28;20047;-82
2021/11/06 02:01:54;;;;;;;9.68;5.00;;;;;;;;;;5038130;28;20521;-82
2021/11/06 02:04:22;;;;;;;6.50;3.92;;;;;;;;;;5030543;28;20042;-82
2021/11/06 02:06:50;;;;;;;9.15;5.35;;;;;;;;;;5031891;28;20046;-82
2021/11/06 02:09:16;;;;;;;8.32;4.13;;;;;;;;;;5032608;28;20042;-82
2021/11/06 02:11:43;;;;;;;9.52;4.38;;;;;;;;;;5031850;28;20041;-82
2021/11/06 02:14:09;;;;;;;8.07;4.75;;;;;;;;;;5037019;28;20041;-82
2021/11/06 02:16:36;;;;;;;7.05;4.10;;;;;;;;;;5036339;28;20053;-82
2021/11/06 02:19:04;;;;;;;8.02;3.95;;;;;;;;;;5035314;28;20053;-82
2021/11/06 02:21:34;;;;;;;7.70;4.10;;;;;;;;;;5028202;28;20383;-82
2021/11/06 02:24:00;;;;;;;9.00;4.50;;;;;;;;;;5030951;28;20073;-82
2021/11/06 02:26:27;;;;;;;8.23;5.05;;;;;;;;;;5031050;28;20053;-82
2021/11/06 02:28:55;;;;;;;7.45;4.10;;;;;;;;;;5031652;28;20041;-82
2021/11/06 02:31:22;;;;;;;7.55;4.20;;;;;;;;;;5038778;28;20275;-82
2021/11/06 02:33:50;;;;;;;6.60;3.88;;;;;;;;;;5034761;28;20493;-81
2021/11/06 02:36:16;;;;;;;7.32;4.22;;;;;;;;;;5032714;28;20477;-82
2021/11/06 02:38:45;;;;;;;8.40;3.97;;;;;;;;;;5035897;28;20041;-82
2021/11/06 02:41:11;;;;;;;6.47;3.67;;;;;;;;;;5028488;28;20046;-82
2021/11/06 02:43:38;;;;;;;5.78;3.55;;;;;;;;;;5032064;28;20042;-82
2021/11/06 02:46:04;;;;;;;5.85;3.20;;;;;;;;;;5036215;28;20057;-82
2021/11/06 02:48:31;;;;;;;5.15;2.92;;;;;;;;;;5035447;28;20072;-82
2021/11/06 02:50:57;;;;;;;5.13;2.53;;;;;;;;;;5035711;28;20053;-82
2021/11/06 02:53:24;;;;;;;5.50;3.05;;;;;;;;;;5031525;28;20048;-82
2021/11/06 02:55:52;;;;;;;6.10;3.17;;;;;;;;;;5029886;28;20049;-82
2021/11/06 02:58:19;;;;;;;5.57;3.17;;;;;;;;;;5028153;28;20045;-82
2021/11/06 03:00:45;;;;;;;6.25;3.20;;;;;;;;;;5032965;28;20168;-82
2021/11/06 03:03:11;;;;;;;7.18;3.45;;;;;;;;;;5029359;28;20053;-82
2021/11/06 03:05:38;;;;;;;6.00;3.10;;;;;;;;;;5035718;28;20045;-82
2021/11/06 03:08:05;;;;;;;4.70;2.70;;;;;;;;;;5032366;28;20045;-82
2021/11/06 03:10:31;;;;;;;5.50;2.92;;;;;;;;;;5029732;28;20052;-82
2021/11/06 03:13:01;;;;;;;4.88;2.78;;;;;;;;;;5035510;28;20407;-82
2021/11/06 03:15:28;;;;;;;4.32;2.50;;;;;;;;;;5035166;28;20053;-82
2021/11/06 03:17:54;;;;;;;6.85;3.40;;;;;;;;;;5031183;28;20065;-82
2021/11/06 03:20:21;;;;;;;5.63;2.55;;;;;;;;;;5038969;28;20053;-82
2021/11/06 03:22:49;;;;;;;5.55;3.13;;;;;;;;;;5030139;28;20052;-82
2021/11/06 03:25:16;;;;;;;5.25;3.08;;;;;;;;;;5038957;28;20041;-82
2021/11/06 03:27:42;;;;;;;4.63;2.45;;;;;;;;;;5033824;28;20513;-82
2021/11/06 03:30:11;;;;;;;7.65;2.95;;;;;;;;;;5034611;28;20045;-81
2021/11/06 03:32:38;;;;;;;4.45;2.40;;;;;;;;;;5033968;28;20100;-82
2021/11/06 03:35:06;;;;;;;6.28;3.20;;;;;;;;;;5034942;28;20517;-82
2021/11/06 03:37:33;;;;;;;6.28;3.25;;;;;;;;;;5035211;28;20048;-82
2021/11/06 03:39:59;;;;;;;4.55;2.75;;;;;;;;;;5037658;28;20049;-82
2021/11/06 03:42:27;;;;;;;4.90;2.83;;;;;;;;;;5027847;28;20401;-81
2021/11/06 03:44:54;;;;;;;3.97;2.47;;;;;;;;;;5033545;28;20409;-82
2021/11/06 03:47:22;;;;;;;7.32;3.03;;;;;;;;;;5032728;28;20052;-82
2021/11/06 03:49:49;;;;;;;5.57;3.47;;;;;;;;;;5035338;28;20073;-82
2021/11/06 03:52:15;;;;;;;9.85;3.58;;;;;;;;;;5039707;28;20046;-82
2021/11/06 03:54:42;;;;;;;5.82;2.90;;;;;;;;;;5036247;28;20041;-82
2021/11/06 03:57:09;;;;;;;6.47;3.17;;;;;;;;;;5036041;28;20057;-81
2021/11/06 03:59:35;;;;;;;6.80;2.88;;;;;;;;;;5035622;28;20048;-81
2021/11/06 04:02:02;;;;;;;8.63;4.03;;;;;;;;;;5033055;28;20050;-82
2021/11/06 04:04:30;;;;;;;6.43;2.88;;;;;;;;;;5027398;28;20048;-82
2021/11/06 04:06:56;;;;;;;7.30;3.20;;;;;;;;;;5031382;28;20049;-82
2021/11/06 04:09:22;;;;;;;7.65;3.78;;;;;;;;;;5038009;28;20048;-82
2021/11/06 04:11:50;;;;;;;8.38;3.20;;;;;;;;;;5034694;28;20041;-81
2021/11/06 04:14:16;;;;;;;6.32;3.05;;;;;;;;;;5030253;28;20069;-82
2021/11/06 04:16:43;;;;;;;7.60;3.53;;;;;;;;;;5034392;28;20053;-82
2021/11/06 04:19:10;;;;;;;9.48;3.35;;;;;;;;;;5026156;28;20042;-82
2021/11/06 04:21:38;;;;;;;9.90;4.75;;;;;;;;;;5035474;28;20115;-81
2021/11/06 04:24:05;;;;;;;8.35;3.45;;;;;;;;;;5031444;28;20045;-81
2021/11/06 04:26:32;;;;;;;7.88;3.75;;;;;;;;;;5035027;28;20052;-81
2021/11/06 04:28:58;;;;;;;16.67;5.13;;;;;;;;;;5035129;28;20061;-81
2021/11/06 04:31:24;;;;;;;10.45;3.85;;;;;;;;;;5033427;28;20050;-82
2021/11/06 04:33:51;;;;;;;6.97;3.53;;;;;;;;;;5032010;28;20056;-81
2021/11/06 04:36:17;;;;;;;10.93;5.03;;;;;;;;;;5034821;28;20045;-81
2021/11/06 04:38:45;;;;;;;11.00;4.10;;;;;;;;;;5031673;28;20037;-82
2021/11/06 04:41:12;;;;;;;11.50;4.45;;;;;;;;;;5033970;28;20041;-82
2021/11/06 04:43:39;;;;;;;10.23;4.60;;;;;;;;;;5033136;28;20042;-82
2021/11/06 04:46:06;;;;;;;13.77;4.28;;;;;;;;;;5035520;28;20057;-82
2021/11/06 04:48:32;;;;;;;11.02;5.13;;;;;;;;;;5036030;28;20099;-82
2021/11/06 04:50:59;;;;;;;11.50;5.57;;;;;;;;;;5034710;28;20486;-82
2021/11/06 04:53:25;;;;;;;8.52;4.45;;;;;;;;;;5033502;28;20406;-82
2021/11/06 04:55:53;;;;;;;10.98;4.32;;;;;;;;;;5033987;28;20045;-82
2021/11/06 04:58:20;;;;;;;11.40;4.90;;;;;;;;;;5034869;28;20045;-82
2021/11/06 05:00:46;;;;;;;12.00;4.65;;;;;;;;;;5033517;28;20063;-82
2021/11/06 05:03:14;;;;;;;8.45;4.10;;;;;;;;;;5032678;28;20045;-82
2021/11/06 05:05:41;;;;;;;8.70;4.30;;;;;;;;;;5035574;28;20128;-81
2021/11/06 05:08:07;;;;;;;9.38;4.80;;;;;;;;;;5034322;28;20057;-82
2021/11/06 05:10:34;;;;;;;8.43;4.43;;;;;;;;;;5034393;28;20053;-84
2021/11/06 05:13:01;;;;;;;9.85;4.57;;;;;;;;;;5035161;28;20052;-82
2021/11/06 05:15:28;;;;;;;7.40;4.45;;;;;;;;;;5035070;28;20408;-82
2021/11/06 05:17:54;;;;;;;11.90;5.22;;;;;;;;;;5037749;28;20884;-82
2021/11/06 05:20:21;;;;;;;12.05;5.18;;;;;;;;;;5034926;28;20045;-82
2021/11/06 05:22:47;;;;;;;12.73;5.05;;;;;;;;;;5035220;28;20052;-82
2021/11/06 05:25:14;;;;;;;11.40;5.07;;;;;;;;;;5033900;28;20056;-82
2021/11/06 05:27:41;;;;;;;7.45;4.10;;;;;;;;;;5035155;28;20042;-82
2021/11/06 05:30:11;;;;;;;10.13;4.05;;;;;;;;;;5034416;28;20048;-82
2021/11/06 05:32:38;;;;;;;8.88;4.30;;;;;;;;;;5038142;28;20045;-82
2021/11/06 05:35:07;;;;;;;8.27;4.20;;;;;;;;;;5049731;28;20049;-82
2021/11/06 05:37:33;;;;;;;8.52;4.13;;;;;;;;;;5035319;28;20045;-82
2021/11/06 05:40:00;;;;;;;8.65;4.57;;;;;;;;;;5035412;28;20049;-82
2021/11/06 05:42:26;;;;;;;13.85;5.43;;;;;;;;;;5032226;28;20049;-82
2021/11/06 05:44:53;;;;;;;10.27;5.10;;;;;;;;;;5035176;28;20045;-82
2021/11/06 05:47:21;;;;;;;16.45;5.45;;;;;;;;;;5040622;28;20042;-82
2021/11/06 05:49:48;;;;;;;9.93;4.32;;;;;;;;;;5037927;28;20042;-82
2021/11/06 05:52:14;;;;;;;10.90;4.88;;;;;;;;;;5038663;28;20049;-82
2021/11/06 05:54:41;;;;;;;22.55;5.78;;;;;;;;;;5044125;28;20037;-82
2021/11/06 05:57:08;;;;;;;10.30;4.95;;;;;;;;;;5037703;28;20064;-82
2021/11/06 05:59:34;;;;;;;82.45;9.68;;;;;;;;;;5029477;28;20054;-82
2021/11/06 06:02:01;;;;;;;23.30;5.13;;;;;;;;;;5033348;28;20049;-81
2021/11/06 06:04:28;;;;;;;11.98;4.75;;;;;;;;;;5031855;28;20043;-81
2021/11/06 06:06:55;;;;;;;15.65;5.78;;;;;;;;;;5029432;28;20050;-82
2021/11/06 06:09:21;;;;;;;20.63;5.90;;;;;;;;;;5032440;28;20544;-82
2021/11/06 06:11:48;;;;;;;13.48;4.80;;;;;;;;;;5032104;28;20041;-81
2021/11/06 06:14:14;;;;;;;10.55;4.47;;;;;;;;;;5031814;28;20041;-81
2021/11/06 06:16:41;;;;;;;9.18;4.88;;;;;;;;;;5030273;28;20391;-82
2021/11/06 06:19:07;;;;;;;10.25;4.95;;;;;;;;;;5028873;28;20425;-81
2021/11/06 06:21:35;;;;;;;12.50;5.45;;;;;;;;;;5027468;28;20662;-82
2021/11/06 06:24:01;;;;;;;10.45;4.35;;;;;;;;;;5032003;28;20053;-82
2021/11/06 06:26:28;;;;;;;7.85;3.95;;;;;;;;;;5033950;28;20048;-81
2021/11/06 06:28:54;;;;;;;13.43;5.50;;;;;;;;;;5035569;28;20049;-82
2021/11/06 06:31:21;;;;;;;16.75;4.72;;;;;;;;;;5035507;28;20049;-82
2021/11/06 06:33:47;;;;;;;9.60;5.00;;;;;;;;;;5038366;28;20429;-82
2021/11/06 06:36:14;;;;;;;16.15;5.43;;;;;;;;;;5031188;28;20045;-82
2021/11/06 06:38:42;;;;;;;16.10;5.43;;;;;;;;;;5035358;28;20045;-82
2021/11/06 06:41:08;;;;;;;13.77;5.40;;;;;;;;;;5035735;28;20056;-82
2021/11/06 06:43:35;;;;;;;12.48;4.93;;;;;;;;;;5034996;28;20033;-82
2021/11/06 06:46:01;;;;;;;13.07;4.95;;;;;;;;;;5034707;28;20057;-82
2021/11/06 06:48:28;;;;;;;10.52;4.25;;;;;;;;;;5035395;28;20049;-82
2021/11/06 06:50:55;;;;;;;14.32;5.60;;;;;;;;;;5035352;28;20555;-82
2021/11/06 06:53:21;;;;;;;23.85;6.00;;;;;;;;;;5035099;28;20128;-82
2021/11/06 06:55:49;;;;;;;14.90;5.63;;;;;;;;;;5037367;28;20040;-81
2021/11/06 06:58:16;;;;;;;10.57;6.20;;;;;;;;;;5032551;28;20038;-82
2021/11/06 07:00:43;;;;;;;20.75;6.25;;;;;;;;;;5029785;28;20041;-82
2021/11/06 07:03:10;;;;;;;23.08;5.55;;;;;;;;;;5033828;28;20045;-82
2021/11/06 07:05:37;;;;;;;24.40;7.55;;;;;;;;;;5032512;28;20071;-82
2021/11/06 07:08:05;;;;;;;12.50;5.43;;;;;;;;;;5033054;28;20056;-82
2021/11/06 07:10:32;;;;;;;11.00;5.57;;;;;;;;;;5033913;28;20458;-83
2021/11/06 07:13:00;;;;;;;18.27;6.00;;;;;;;;;;5035282;28;20127;-82
2021/11/06 07:15:27;;;;;;;23.35;6.85;;;;;;;;;;5035900;28;20045;-82
2021/11/06 07:17:53;;;;;;;21.90;6.53;;;;;;;;;;5034093;28;20041;-83
2021/11/06 07:20:20;;;;;;;18.77;7.50;;;;;;;;;;5039580;28;20072;-81
2021/11/06 07:22:47;;;;;;;15.13;7.07;;;;;;;;;;5038163;28;20075;-80
2021/11/06 07:25:14;;;;;;;12.52;5.88;;;;;;;;;;5037908;28;20053;-80
2021/11/06 07:27:41;;;;;;;19.58;8.07;;;;;;;;;;5036344;28;20069;-82
2021/11/06 07:30:11;;;;;;;22.77;7.20;;;;;;;;;;5036528;28;20133;-83
2021/11/06 07:32:38;;;;;;;15.90;7.10;;;;;;;;;;5037132;28;20045;-82
2021/11/06 07:35:05;;;;;;;13.13;6.35;;;;;;;;;;5037611;28;20465;-82
2021/11/06 07:37:33;;;;;;;18.02;7.68;;;;;;;;;;5029224;28;20045;-83
2021/11/06 07:40:01;;;;;;;14.90;6.63;;;;;;;;;;5037250;28;20533;-83
2021/11/06 07:42:27;;;;;;;17.33;8.50;;;;;;;;;;5036222;28;20056;-82
2021/11/06 07:44:54;;;;;;;14.80;7.20;;;;;;;;;;5036237;28;20045;-82
2021/11/06 07:47:22;;;;;;;15.57;7.22;;;;;;;;;;5035629;28;20047;-82
2021/11/06 07:49:48;;;;;;;12.77;6.55;;;;;;;;;;5035756;28;20038;-83
2021/11/06 07:52:15;;;;;;;13.40;8.13;;;;;;;;;;5036135;28;20049;-83
2021/11/06 07:54:42;;;;;;;21.10;7.28;;;;;;;;;;5038212;28;20045;-84
2021/11/06 07:57:09;;;;;;;19.10;7.53;;;;;;;;;;5036044;28;20050;-83
2021/11/06 07:59:36;;;;;;;14.77;7.20;;;;;;;;;;5034727;28;20122;-83
2021/11/06 08:02:02;;;;;;;23.33;8.07;;;;;;;;;;5036579;28;20120;-83
2021/11/06 08:04:30;;;;;;;21.73;8.65;;;;;;;;;;5037227;28;20042;-83
2021/11/06 08:06:57;;;;;;;17.90;7.43;;;;;;;;;;5039411;28;20075;-83
2021/11/06 08:09:23;;;;;;;20.98;8.75;;;;;;;;;;5038901;28;20068;-83
2021/11/06 08:11:50;;;;;;;16.33;7.97;;;;;;;;;;5038962;28;20054;-83
2021/11/06 08:14:16;;;;;;;21.30;8.23;;;;;;;;;;5036793;28;20466;-83
2021/11/06 08:16:43;;;;;;;17.85;7.72;;;;;;;;;;5036980;28;20121;-81
2021/11/06 08:19:10;;;;;;;19.60;7.47;;;;;;;;;;5038515;28;20105;-80
2021/11/06 08:21:38;;;;;;;17.90;8.50;;;;;;;;;;5038133;28;20076;-83
2021/11/06 08:24:05;;;;;;;24.92;8.73;;;;;;;;;;5032427;28;20075;-83
2021/11/06 08:26:32;;;;;;;33.63;9.65;;;;;;;;;;5037043;28;20042;-81
2021/11/06 08:28:58;;;;;;;23.25;8.38;;;;;;;;;;5037117;28;20048;-81
2021/11/06 08:31:25;;;;;;;16.33;8.20;;;;;;;;;;5034830;28;20064;-80
2021/11/06 08:33:52;;;;;;;19.90;9.88;;;;;;;;;;5040199;28;20076;-81
2021/11/06 08:36:18;;;;;;;14.55;8.35;;;;;;;;;;5038210;28;20038;-81
2021/11/06 08:38:46;;;;;;;19.63;7.55;;;;;;;;;;5041073;28;20052;-83
2021/11/06 08:41:13;;;;;;;16.00;8.57;;;;;;;;;;5038561;28;20739;-81
2021/11/06 08:43:40;;;;;;;18.50;8.98;;;;;;;;;;5038054;28;20048;-81
2021/11/06 08:46:06;;;;;;;24.35;9.68;;;;;;;;;;5038548;28;20041;-81
2021/11/06 08:48:33;;;;;;;20.48;8.48;;;;;;;;;;5043504;28;20045;-81
2021/11/06 08:51:00;;;;;;;24.58;9.65;;;;;;;;;;5041246;28;20053;-81
2021/11/06 08:53:26;;;;;;;23.70;9.38;;;;;;;;;;5042086;28;20421;-81
2021/11/06 08:55:55;;;;;;;27.88;10.98;;;;;;;;;;5041717;28;20407;-81
2021/11/06 08:58:21;;;;;;;21.95;10.90;;;;;;;;;;5040387;28;20061;-80
2021/11/06 09:00:49;;;;;;;20.92;11.25;;;;;;;;;;5038439;28;20052;-81
2021/11/06 09:03:19;;;;;;;17.30;9.68;;;;;;;;;;5038972;28;20042;-81
2021/11/06 09:05:50;;;;;;;19.45;10.60;;;;;;;;;;5037368;28;20079;-81
2021/11/06 09:08:18;;;;;;;22.52;10.43;;;;;;;;;;5034107;28;20543;-81
2021/11/06 09:10:45;;;;;;;30.75;11.57;;;;;;;;;;5036469;28;20056;-81
2021/11/06 09:13:14;;;;;;;23.45;10.55;;;;;;;;;;5034699;28;20490;-81
2021/11/06 09:15:40;;;;;;;28.35;11.38;;;;;;;;;;5033951;28;20048;-81
2021/11/06 09:18:07;;;;;;;25.98;10.65;;;;;;;;;;5037852;28;20117;-81
2021/11/06 09:20:34;;;;;;;22.77;11.88;;;;;;;;;;5036794;28;20049;-81
2021/11/06 09:23:00;;;;;;;19.70;11.95;;;;;;;;;;5038084;28;20041;-81
2021/11/06 09:25:27;;;;;;;25.33;11.40;;;;;;;;;;5030123;28;20042;-81
2021/11/06 09:27:53;;;;;;;22.55;11.77;;;;;;;;;;5026858;28;20312;-81
2021/11/06 09:30:21;;;;;;;24.50;12.43;;;;;;;;;;5035460;28;20056;-81
2021/11/06 09:32:48;;;;;;;24.25;13.07;;;;;;;;;;5035802;28;20042;-81
2021/11/06 09:35:15;;;;;;;25.20;12.68;;;;;;;;;;5036270;28;20033;-81
2021/11/06 09:37:42;;;;;;;28.30;12.65;;;;;;;;;;5038034;28;20405;-81
2021/11/06 09:40:11;;;;;;;26.52;11.30;;;;;;;;;;5038463;28;20111;-81
2021/11/06 09:42:39;;;;;;;26.92;12.50;;;;;;;;;;5036876;28;20046;-81
2021/11/06 09:45:06;;;;;;;32.33;14.15;;;;;;;;;;5031402;28;20080;-82
2021/11/06 09:47:34;;;;;;;26.50;13.32;;;;;;;;;;5036688;28;20449;-81
2021/11/06 09:50:00;;;;;;;27.17;14.15;;;;;;;;;;5037832;28;20049;-81
2021/11/06 09:52:27;;;;;;;28.00;13.52;;;;;;;;;;5035851;28;20037;-81
2021/11/06 09:54:53;;;;;;;26.67;14.82;;;;;;;;;;5031239;28;20049;-82
2021/11/06 09:57:20;;;;;;;28.50;14.43;;;;;;;;;;5030147;28;20414;-81
2021/11/06 09:59:47;;;;;;;30.27;14.57;;;;;;;;;;5038420;28;20034;-81
2021/11/06 10:02:13;;;;;;;28.77;14.75;;;;;;;;;;5037053;28;20045;-81
2021/11/06 10:04:41;;;;;;;31.20;14.43;;;;;;;;;;5040327;28;20409;-81
2021/11/06 10:07:18;;;;;;;26.88;15.23;;;;;;;;;;5040576;28;20045;-83
2021/11/06 10:09:55;;;;;;;28.33;14.10;;;;;;;;;;5041166;28;20045;-81
2021/11/06 10:12:23;;;;;;;31.23;15.38;;;;;;;;;;5037751;28;20042;-81
2021/11/06 10:15:04;;;;;;;28.40;14.15;;;;;;;;;;5036209;28;20057;-81
2021/11/06 10:17:34;;;;;;;32.33;15.73;;;;;;;;;;5034352;28;20046;-81
2021/11/06 10:20:18;;;;;;;33.90;17.08;;;;;;;;;;5040295;28;20073;-81
2021/11/06 10:22:45;;;;;;;37.67;18.02;;;;;;;;;;5042218;28;20037;-81
2021/11/06 10:25:11;;;;;;;34.40;17.20;;;;;;;;;;5044506;28;20046;-81
2021/11/06 10:27:38;;;;;;;34.60;17.23;;;;;;;;;;5041702;28;20045;-81
2021/11/06 10:30:08;;;;;;;31.02;16.98;;;;;;;;;;5036507;28;20046;-82
2021/11/06 10:32:35;;;;;;;34.20;18.10;;;;;;;;;;5039448;28;20076;-81
2021/11/06 10:35:13;;;;;;;44.97;21.02;;;;;;;;;;5037365;28;20053;-81
2021/11/06 10:37:40;;;;;;;38.17;20.17;;;;;;;;;;5041716;28;20398;-81
2021/11/06 10:40:09;;;;;;;35.92;18.48;;;;;;;;;;5035422;28;20056;-81
2021/11/06 10:42:37;;;;;;;31.83;18.63;;;;;;;;;;5039461;28;20136;-81
2021/11/06 10:45:11;;;;;;;30.83;16.23;;;;;;;;;;5031391;28;20057;-81
2021/11/06 10:47:53;;;;;;;34.28;17.45;;;;;;;;;;5034413;28;20042;-81
2021/11/06 10:50:41;;;;;;;33.03;18.00;;;;;;;;;;5033653;28;20058;-81
2021/11/06 10:53:10;;;;;;;31.63;18.13;;;;;;;;;;5041173;28;20049;-83
2021/11/06 10:55:38;;;;;;;38.28;23.52;;;;;;;;;;5043952;28;20060;-81
2021/11/06 10:58:05;;;;;;;34.55;20.45;;;;;;;;;;5034670;28;20041;-82
2021/11/06 11:00:31;;;;;;;33.05;19.17;;;;;;;;;;5039981;28;20064;-82
2021/11/06 11:03:25;;;;;;;33.35;17.60;;;;;;;;;;5041110;28;20060;-82
2021/11/06 11:05:54;;;;;;;32.03;17.70;;;;;;;;;;5042498;28;20056;-82
2021/11/06 11:08:20;;;;;;;29.48;16.80;;;;;;;;;;5034489;28;20045;-81
2021/11/06 11:10:47;;;;;;;34.10;16.83;;;;;;;;;;5032560;28;20052;-81
2021/11/06 11:13:18;;;;;;;32.80;19.13;;;;;;;;;;5039134;28;20037;-81
2021/11/06 11:15:47;;;;;;;35.97;18.40;;;;;;;;;;5039837;28;20093;-81
2021/11/06 11:18:29;;;;;;;36.13;19.77;;;;;;;;;;5031540;28;20064;-81
2021/11/06 11:21:10;;;;;;;30.90;17.05;;;;;;;;;;5038355;28;20067;-81
2021/11/06 11:23:37;;;;;;;31.17;17.25;;;;;;;;;;5035880;28;20053;-82
2021/11/06 11:26:04;;;;;;;32.95;18.27;;;;;;;;;;5038583;28;20050;-81
2021/11/06 11:28:31;;;;;;;32.58;18.38;;;;;;;;;;5038347;28;20063;-81
2021/11/06 11:30:58;;;;;;;32.00;17.63;;;;;;;;;;5018445;28;20057;-81
2021/11/06 11:33:24;;;;;;;30.67;18.52;;;;;;;;;;5043206;28;20413;-81
2021/11/06 11:35:51;;;;;;;34.83;19.23;;;;;;;;;;5030405;28;20052;-81
2021/11/06 11:38:20;;;;;;;28.92;17.38;;;;;;;;;;5037738;28;20072;-81
2021/11/06 11:40:57;;;;;;;30.13;17.40;;;;;;;;;;5038190;28;20267;-82
2021/11/06 11:43:28;;;;;;;27.73;16.50;;;;;;;;;;5034722;28;20053;-81
2021/11/06 11:45:58;;;;;;;34.15;18.63;;;;;;;;;;5038103;28;20053;-84
2021/11/06 11:48:25;;;;;;;34.42;18.83;;;;;;;;;;5038769;28;20159;-82
2021/11/06 11:50:58;;;;;;;32.28;17.38;;;;;;;;;;5035830;28;20041;-81
2021/11/06 11:53:28;;;;;;;34.95;18.27;;;;;;;;;;5034541;28;20502;-81
2021/11/06 11:55:56;;;;;;;31.95;19.45;;;;;;;;;;5034313;28;20045;-81
2021/11/06 11:58:25;;;;;;;37.47;18.33;;;;;;;;;;5037031;28;20111;-81
2021/11/06 12:00:52;;;;;;;37.28;19.58;;;;;;;;;;5035450;28;20041;-81
2021/11/06 12:03:33;;;;;;;32.88;19.55;;;;;;;;;;5037642;28;20043;-81
2021/11/06 12:06:00;;;;;;;35.45;19.63;;;;;;;;;;5036591;28;20053;-80
2021/11/06 12:08:33;;;;;;;35.83;20.88;;;;;;;;;;5038069;28;20041;-80
2021/11/06 12:11:12;;;;;;;33.38;18.65;;;;;;;;;;5037530;28;20494;-80
2021/11/06 12:13:40;;;;;;;33.80;18.88;;;;;;;;;;5036576;28;20050;-80
2021/11/06 12:16:08;;;;;;;32.90;18.85;;;;;;;;;;5034935;28;20095;-80
2021/11/06 12:18:56;;;;;;;31.23;18.70;;;;;;;;;;5031795;28;20042;-80
2021/11/06 12:21:32;;;;;;;38.13;18.75;;;;;;;;;;5031506;28;20497;-80
2021/11/06 12:24:20;;;;;;;30.98;18.98;;;;;;;;;;5035276;28;20045;-80
2021/11/06 12:26:48;;;;;;;33.65;18.90;;;;;;;;;;5037551;28;20406;-81
2021/11/06 12:29:30;;;;;;;37.65;20.63;;;;;;;;;;5034461;28;20053;-80
2021/11/06 12:32:13;;;;;;;36.15;17.98;;;;;;;;;;5033916;28;20045;-81
2021/11/06 12:34:46;;;;;;;30.88;17.58;;;;;;;;;;5032631;28;20052;-80
2021/11/06 12:37:14;;;;;;;35.60;17.52;;;;;;;;;;5036169;28;20048;-80
2021/11/06 12:39:55;;;;;;;27.85;16.13;;;;;;;;;;5034882;28;20045;-80
2021/11/06 12:42:24;;;;;;;30.13;17.85;;;;;;;;;;5034904;28;20072;-80
2021/11/06 12:44:53;;;;;;;28.25;16.55;;;;;;;;;;5031245;28;20041;-80
2021/11/06 12:47:20;;;;;;;30.13;16.02;;;;;;;;;;5036108;28;20468;-80
2021/11/06 12:49:47;;;;;;;28.48;16.88;;;;;;;;;;5032822;28;20080;-80
2021/11/06 12:52:16;;;;;;;28.05;15.70;;;;;;;;;;5030599;28;20578;-80
2021/11/06 12:54:44;;;;;;;27.67;16.67;;;;;;;;;;5031969;28;20049;-80
2021/11/06 12:57:11;;;;;;;28.33;16.55;;;;;;;;;;5035952;28;20057;-80
2021/11/06 12:59:47;;;;;;;26.95;15.88;;;;;;;;;;5028746;28;20045;-80
2021/11/06 13:02:14;;;;;;;28.42;16.05;;;;;;;;;;5032433;28;20054;-80
2021/11/06 13:04:40;;;;;;;25.08;15.52;;;;;;;;;;5034859;28;20052;-80
2021/11/06 13:07:07;;;;;;;27.42;15.85;;;;;;;;;;5039778;28;20049;-79
2021/11/06 13:09:35;;;;;;;24.52;14.88;;;;;;;;;;5037308;28;20056;-80
2021/11/06 13:12:05;;;;;;;25.92;15.68;;;;;;;;;;5033602;28;20077;-81
2021/11/06 13:14:34;;;;;;;25.27;15.73;;;;;;;;;;5033743;28;20045;-82
2021/11/06 13:17:02;;;;;;;24.63;15.75;;;;;;;;;;5031624;28;20446;-81
2021/11/06 13:19:37;;;;;;;25.10;15.60;;;;;;;;;;5035619;28;20044;-82
2021/11/06 13:22:04;;;;;;;23.88;14.57;;;;;;;;;;5035776;28;20120;-81
2021/11/06 13:24:52;;;;;;;22.27;14.35;;;;;;;;;;5033221;28;20042;-82
2021/11/06 13:27:47;;;;;;;24.33;15.98;;;;;;;;;;5037331;28;20045;-81
2021/11/06 13:30:28;;;;;;;25.88;15.07;;;;;;;;;;5035567;28;20061;-82
2021/11/06 13:33:09;;;;;;;23.70;15.15;;;;;;;;;;5028874;28;20113;-82
2021/11/06 13:35:38;;;;;;;20.73;14.43;;;;;;;;;;5033852;28;20049;-82
2021/11/06 13:38:20;;;;;;;26.42;15.35;;;;;;;;;;5037564;28;20041;-82
2021/11/06 13:40:50;;;;;;;24.48;14.10;;;;;;;;;;5040236;28;20053;-82
2021/11/06 13:43:20;;;;;;;27.30;16.15;;;;;;;;;;5033954;28;20049;-82
2021/11/06 13:46:12;;;;;;;22.15;14.45;;;;;;;;;;5032615;28;20482;-82
2021/11/06 13:48:42;;;;;;;25.52;14.35;;;;;;;;;;5035236;28;20591;-81
2021/11/06 13:51:18;;;;;;;21.42;14.65;;;;;;;;;;5028831;28;20054;-81
2021/11/06 13:54:00;;;;;;;23.30;14.60;;;;;;;;;;5036298;28;20077;-81
2021/11/06 13:56:27;;;;;;;24.17;14.82;;;;;;;;;;5031563;28;20409;-81
2021/11/06 13:58:57;;;;;;;23.38;14.55;;;;;;;;;;5032623;28;20512;-81
2021/11/06 14:01:24;;;;;;;24.58;14.00;;;;;;;;;;5036257;28;20378;-81
2021/11/06 14:03:51;;;;;;;20.35;13.32;;;;;;;;;;5031824;28;20045;-81
2021/11/06 14:06:18;;;;;;;21.42;14.40;;;;;;;;;;5034172;28;20045;-82
2021/11/06 14:08:44;;;;;;;21.52;13.63;;;;;;;;;;5035003;28;20132;-82
2021/11/06 14:11:11;;;;;;;21.73;13.70;;;;;;;;;;5035456;28;20056;-82
2021/11/06 14:13:38;;;;;;;21.75;13.75;;;;;;;;;;5030681;28;20366;-82
2021/11/06 14:16:16;;;;;;;22.40;14.52;;;;;;;;;;5030809;28;20045;-81
2021/11/06 14:18:46;;;;;;;18.60;13.07;;;;;;;;;;5032389;28;20050;-81
2021/11/06 14:21:14;;;;;;;19.33;13.63;;;;;;;;;;5034339;28;20124;-81
2021/11/06 14:23:44;;;;;;;21.20;14.25;;;;;;;;;;5034106;28;20100;-82
2021/11/06 14:26:11;;;;;;;18.08;12.85;;;;;;;;;;5033967;28;20044;-81
2021/11/06 14:28:47;;;;;;;21.30;13.57;;;;;;;;;;5029804;28;20072;-80
2021/11/06 14:31:16;;;;;;;22.08;13.93;;;;;;;;;;5033792;28;20045;-81
2021/11/06 14:33:43;;;;;;;21.13;13.63;;;;;;;;;;5035153;28;20644;-81
2021/11/06 14:36:15;;;;;;;21.67;13.75;;;;;;;;;;5031813;28;20065;-81